CheckWX is a tool to help pilots better visualize weather data.  It is not intended as a substitute for an official pre-flight weather briefing.

08:14:41 UTC

SCIE METAR
Carriel Sur Airport
Concepcion, Chile
Current

1 hour ago

SCIE 150700Z 25003KT 7000 BKN006 15/14 Q1018
Observed
Nov-15 @ 07:00 UTC
Wind
  • 250° at 3 KTS
Visibility
7,000 meters
Flight Rules
IFR
Cloud Levels
  • Broken at 600' AGL
Temperature
15°C / 59°F
Dewpoint
14°C / 57°F
Humidity
94%
Altimeter
30.06" Hg
Pressure
1017.92 hPa
Previous

2 hours ago

SCIE 150600Z 21005KT 190V250 6000 OVC005 15/14 Q1018
Observed
Nov-15 @ 06:00 UTC
Wind
  • 210° at 5 KTS
Visibility
6,000 meters
Flight Rules
IFR
Cloud Levels
  • Overcast at 500' AGL
Temperature
15°C / 59°F
Dewpoint
14°C / 57°F
Humidity
94%
Altimeter
30.06" Hg
Pressure
1017.92 hPa
Previous

3 hours ago

SCIE 150500Z 21007KT 6000 OVC005 15/14 Q1018
Observed
Nov-15 @ 05:00 UTC
Wind
  • 210° at 7 KTS
Visibility
6,000 meters
Flight Rules
IFR
Cloud Levels
  • Overcast at 500' AGL
Temperature
15°C / 59°F
Dewpoint
14°C / 57°F
Humidity
94%
Altimeter
30.06" Hg
Pressure
1017.92 hPa